Time,TemperatureF,DewpointF,PressureIn,WindDirection,WindDirectionDegrees,WindSpeedMPH,WindSpeedGustMPH,Humidity,HourlyPrecipIn,Conditions,Clouds,dailyrainin,SoftwareType,DateUTC
2013-01-18 00:02:00,39.5,23.0,30.28,SSE,151,3.0,4.0,51,0.00,,,0.00,weatherlink.com 1.10,2013-01-18 08:02:00,
2013-01-18 00:17:00,39.8,22.0,30.29,SE,144,3.0,3.0,50,0.00,,,0.00,weatherlink.com 1.10,2013-01-18 08:17:00,
2013-01-18 00:32:00,39.4,22.0,30.29,SSE,153,3.0,3.0,50,0.00,,,0.00,weatherlink.com 1.10,2013-01-18 08:32:00,
2013-01-18 00:47:00,39.6,23.0,30.29,SSE,148,3.0,4.0,51,0.00,,,0.00,weatherlink.com 1.10,2013-01-18 08:47:00,
2013-01-18 01:02:00,39.1,21.0,30.29,SSE,148,2.0,4.0,49,0.00,,,0.00,weatherlink.com 1.10,2013-01-18 09:02:00,
2013-01-18 01:17:00,39.2,22.0,30.29,SSE,160,3.0,4.0,51,0.00,,,0.00,weatherlink.com 1.10,2013-01-18 09:17:00,
2013-01-18 01:32:00,39.2,21.0,30.29,SE,145,3.0,4.0,48,0.00,,,0.00,weatherlink.com 1.10,2013-01-18 09:32:00,
2013-01-18 01:47:00,39.3,21.0,30.28,SSE,158,3.0,4.0,49,0.00,,,0.00,weatherlink.com 1.10,2013-01-18 09:47:00,
2013-01-18 02:02:00,39.1,21.0,30.28,SSE,151,3.0,3.0,48,0.00,,,0.00,weatherlink.com 1.10,2013-01-18 10:02:00,
2013-01-18 02:17:00,39.3,21.0,30.28,SSE,167,3.0,4.0,49,0.00,,,0.00,weatherlink.com 1.10,2013-01-18 10:17:00,
2013-01-18 02:32:00,40.2,21.0,30.27,SSE,148,3.0,4.0,47,0.00,,,0.00,weatherlink.com 1.10,2013-01-18 10:32:00,
2013-01-18 02:47:00,39.7,22.0,30.27,SSE,151,4.0,4.0,50,0.00,,,0.00,weatherlink.com 1.10,2013-01-18 10:47:00,
2013-01-18 03:02:00,39.7,21.0,30.27,SE,143,3.0,4.0,48,0.00,,,0.00,weatherlink.com 1.10,2013-01-18 11:02:00,
2013-01-18 03:17:00,39.6,22.0,30.27,South,169,3.0,4.0,49,0.00,,,0.00,weatherlink.com 1.10,2013-01-18 11:17:00,
2013-01-18 03:32:00,39.6,21.0,30.26,SE,137,3.0,4.0,48,0.00,,,0.00,weatherlink.com 1.10,2013-01-18 11:32:00,
2013-01-18 03:47:00,40.2,20.0,30.26,SE,146,3.0,4.0,45,0.00,,,0.00,weatherlink.com 1.10,2013-01-18 11:47:00,
2013-01-18 04:02:00,40.3,21.0,30.26,SE,139,3.0,4.0,46,0.00,,,0.00,weatherlink.com 1.10,2013-01-18 12:02:00,
2013-01-18 04:17:00,40.6,21.0,30.26,SE,140,3.0,4.0,45,0.00,,,0.00,weatherlink.com 1.10,2013-01-18 12:17:00,
2013-01-18 04:32:00,40.9,20.0,30.26,SSE,153,3.0,5.0,44,0.00,,,0.00,weatherlink.com 1.10,2013-01-18 12:32:00,
2013-01-18 04:47:00,39.6,22.0,30.26,SSE,156,2.0,4.0,49,0.00,,,0.00,weatherlink.com 1.10,2013-01-18 12:47:00,
2013-01-18 05:02:00,39.3,21.0,30.25,SSE,150,3.0,4.0,49,0.00,,,0.00,weatherlink.com 1.10,2013-01-18 13:02:00,
2013-01-18 05:17:00,39.4,22.0,30.26,SSE,155,3.0,4.0,49,0.00,,,0.00,weatherlink.com 1.10,2013-01-18 13:17:00,
2013-01-18 05:32:00,39.8,21.0,30.25,SSE,155,3.0,4.0,47,0.00,,,0.00,weatherlink.com 1.10,2013-01-18 13:32:00,
2013-01-18 05:47:00,39.8,20.0,30.25,SSE,150,3.0,4.0,46,0.00,,,0.00,weatherlink.com 1.10,2013-01-18 13:47:00,
2013-01-18 06:02:00,40.0,20.0,30.25,SSE,148,3.0,4.0,45,0.00,,,0.00,weatherlink.com 1.10,2013-01-18 14:02:00,
2013-01-18 06:17:00,40.7,21.0,30.26,SE,141,2.0,4.0,45,0.00,,,0.00,weatherlink.com 1.10,2013-01-18 14:17:00,
2013-01-18 06:32:00,40.7,21.0,30.26,SE,141,3.0,4.0,46,0.00,,,0.00,weatherlink.com 1.10,2013-01-18 14:32:00,
2013-01-18 06:47:00,40.4,21.0,30.26,SE,138,3.0,4.0,46,0.00,,,0.00,weatherlink.com 1.10,2013-01-18 14:47:00,
2013-01-18 07:02:00,40.1,21.0,30.26,SSE,163,4.0,4.0,46,0.00,,,0.00,weatherlink.com 1.10,2013-01-18 15:02:00,
2013-01-18 07:17:00,40.2,21.0,30.27,SE,132,3.0,4.0,46,0.00,,,0.00,weatherlink.com 1.10,2013-01-18 15:17:00,
2013-01-18 07:32:00,40.6,21.0,30.27,SSE,151,3.0,4.0,46,0.00,,,0.00,weatherlink.com 1.10,2013-01-18 15:32:00,
2013-01-18 07:48:00,40.4,21.0,30.27,SSE,152,3.0,4.0,47,0.00,,,0.00,weatherlink.com 1.10,2013-01-18 15:48:00,
2013-01-18 08:02:00,40.7,22.0,30.27,SSE,163,2.0,4.0,47,0.00,,,0.00,weatherlink.com 1.10,2013-01-18 16:02:00,
2013-01-18 08:17:00,41.2,22.0,30.27,SSE,152,3.0,4.0,47,0.00,,,0.00,weatherlink.com 1.10,2013-01-18 16:17:00,
2013-01-18 08:33:00,41.2,24.0,30.28,South,170,3.0,4.0,50,0.00,,,0.00,weatherlink.com 1.10,2013-01-18 16:33:00,
2013-01-18 08:48:00,40.8,24.0,30.29,SSE,158,3.0,3.0,51,0.00,,,0.00,weatherlink.com 1.10,2013-01-18 16:48:00,
2013-01-18 09:03:00,40.7,24.0,30.29,SSE,150,3.0,4.0,52,0.00,,,0.00,weatherlink.com 1.10,2013-01-18 17:03:00,
2013-01-18 09:18:00,40.6,25.0,30.29,SSE,155,3.0,3.0,54,0.00,,,0.00,weatherlink.com 1.10,2013-01-18 17:18:00,
2013-01-18 09:33:00,40.8,25.0,30.29,SSE,155,2.0,3.0,54,0.00,,,0.00,weatherlink.com 1.10,2013-01-18 17:33:00,
2013-01-18 09:48:00,40.8,26.0,30.29,SSE,164,2.0,3.0,56,0.00,,,0.00,weatherlink.com 1.10,2013-01-18 17:48:00,
2013-01-18 10:03:00,41.2,26.0,30.29,SSE,156,3.0,3.0,56,0.00,,,0.00,weatherlink.com 1.10,2013-01-18 18:03:00,
2013-01-18 10:18:00,41.6,27.0,30.28,SSE,154,3.0,3.0,57,0.00,,,0.00,weatherlink.com 1.10,2013-01-18 18:18:00,
2013-01-18 10:33:00,42.4,27.0,30.28,SSE,157,2.0,3.0,54,0.00,,,0.00,weatherlink.com 1.10,2013-01-18 18:33:00,
2013-01-18 10:48:00,43.7,25.0,30.28,SSE,160,2.0,3.0,48,0.00,,,0.00,weatherlink.com 1.10,2013-01-18 18:48:00,
2013-01-18 11:03:00,45.9,24.0,30.27,SSE,159,2.0,3.0,43,0.00,,,0.00,weatherlink.com 1.10,2013-01-18 19:03:00,
2013-01-18 11:18:00,47.3,26.0,30.26,SSE,158,2.0,3.0,43,0.00,,,0.00,weatherlink.com 1.10,2013-01-18 19:18:00,
2013-01-18 11:33:00,48.5,26.0,30.25,SSE,157,2.0,3.0,41,0.00,,,0.00,weatherlink.com 1.10,2013-01-18 19:33:00,
2013-01-18 11:48:00,49.4,26.0,30.25,SSE,160,3.0,3.0,40,0.00,,,0.00,weatherlink.com 1.10,2013-01-18 19:48:00,
2013-01-18 12:03:00,49.8,26.0,30.24,SSE,162,3.0,3.0,40,0.00,,,0.00,weatherlink.com 1.10,2013-01-18 20:03:00,
2013-01-18 12:18:00,50.3,27.0,30.23,SSE,163,2.0,3.0,41,0.00,,,0.00,weatherlink.com 1.10,2013-01-18 20:18:00,
2013-01-18 12:33:00,50.4,29.0,30.22,SSE,167,2.0,4.0,44,0.00,,,0.00,weatherlink.com 1.10,2013-01-18 20:33:00,
2013-01-18 12:48:00,50.3,32.0,30.22,South,186,3.0,3.0,49,0.00,,,0.00,weatherlink.com 1.10,2013-01-18 20:48:00,
2013-01-18 13:03:00,49.9,32.0,30.22,SSE,166,2.0,3.0,50,0.00,,,0.00,weatherlink.com 1.10,2013-01-18 21:03:00,
2013-01-18 13:18:00,49.5,32.0,30.21,SSE,165,3.0,4.0,51,0.00,,,0.00,weatherlink.com 1.10,2013-01-18 21:18:00,
2013-01-18 13:33:00,49.0,32.0,30.21,South,190,2.0,4.0,52,0.00,,,0.00,weatherlink.com 1.10,2013-01-18 21:33:00,
2013-01-18 13:48:00,48.3,32.0,30.21,South,170,3.0,4.0,53,0.00,,,0.00,weatherlink.com 1.10,2013-01-18 21:48:00,
2013-01-18 14:03:00,47.5,31.0,30.21,South,169,3.0,5.0,53,0.00,,,0.00,weatherlink.com 1.10,2013-01-18 22:03:00,
2013-01-18 14:18:00,46.9,30.0,30.21,SSE,159,3.0,5.0,53,0.00,,,0.00,weatherlink.com 1.10,2013-01-18 22:18:00,
2013-01-18 14:33:00,45.6,30.0,30.21,South,172,2.0,5.0,55,0.00,,,0.00,weatherlink.com 1.10,2013-01-18 22:33:00,
2013-01-18 14:48:00,45.2,30.0,30.22,South,173,3.0,5.0,56,0.00,,,0.00,weatherlink.com 1.10,2013-01-18 22:48:00,
2013-01-18 15:03:00,44.3,30.0,30.22,South,169,2.0,4.0,57,0.00,,,0.00,weatherlink.com 1.10,2013-01-18 23:03:00,
2013-01-18 15:18:00,44.1,30.0,30.22,SSE,155,2.0,3.0,57,0.00,,,0.00,weatherlink.com 1.10,2013-01-18 23:18:00,
2013-01-18 15:33:00,43.8,29.0,30.22,SSE,154,3.0,4.0,56,0.00,,,0.00,weatherlink.com 1.10,2013-01-18 23:33:00,
2013-01-18 15:48:00,43.5,29.0,30.22,SSE,160,3.0,4.0,57,0.00,,,0.00,weatherlink.com 1.10,2013-01-18 23:48:00,
2013-01-18 16:03:00,43.6,29.0,30.22,SSE,148,3.0,4.0,56,0.00,,,0.00,weatherlink.com 1.10,2013-01-19 00:03:00,
2013-01-18 16:18:00,43.5,29.0,30.22,SSE,155,3.0,4.0,56,0.00,,,0.00,weatherlink.com 1.10,2013-01-19 00:18:00,
2013-01-18 16:33:00,43.3,28.0,30.22,SSE,151,3.0,4.0,55,0.00,,,0.00,weatherlink.com 1.10,2013-01-19 00:33:00,
2013-01-18 16:48:00,42.7,28.0,30.22,SSE,151,3.0,3.0,57,0.00,,,0.00,weatherlink.com 1.10,2013-01-19 00:48:00,
2013-01-18 17:03:00,42.5,28.0,30.23,SSE,155,2.0,3.0,56,0.00,,,0.00,weatherlink.com 1.10,2013-01-19 01:03:00,
2013-01-18 17:18:00,41.9,28.0,30.23,SE,145,3.0,3.0,58,0.00,,,0.00,weatherlink.com 1.10,2013-01-19 01:18:00,
2013-01-18 17:33:00,41.9,27.0,30.23,SSE,151,3.0,4.0,56,0.00,,,0.00,weatherlink.com 1.10,2013-01-19 01:33:00,
2013-01-18 17:48:00,42.2,27.0,30.23,SSE,151,3.0,4.0,56,0.00,,,0.00,weatherlink.com 1.10,2013-01-19 01:48:00,
2013-01-18 18:03:00,42.5,26.0,30.23,SSE,148,3.0,4.0,53,0.00,,,0.00,weatherlink.com 1.10,2013-01-19 02:03:00,
2013-01-18 18:18:00,41.4,27.0,30.23,SSE,151,3.0,3.0,58,0.00,,,0.00,weatherlink.com 1.10,2013-01-19 02:18:00,
2013-01-18 18:33:00,41.0,27.0,30.24,SSE,151,3.0,4.0,59,0.00,,,0.00,weatherlink.com 1.10,2013-01-19 02:33:00,
2013-01-18 18:48:00,40.9,27.0,30.23,SSE,155,3.0,3.0,58,0.00,,,0.00,weatherlink.com 1.10,2013-01-19 02:48:00,
2013-01-18 19:03:00,40.6,27.0,30.24,SSE,152,3.0,3.0,59,0.00,,,0.00,weatherlink.com 1.10,2013-01-19 03:03:00,
2013-01-18 19:18:00,40.7,27.0,30.24,SSE,148,3.0,4.0,59,0.00,,,0.00,weatherlink.com 1.10,2013-01-19 03:18:00,
2013-01-18 19:33:00,40.8,27.0,30.24,SSE,152,3.0,4.0,58,0.00,,,0.00,weatherlink.com 1.10,2013-01-19 03:33:00,
2013-01-18 19:48:00,40.8,27.0,30.24,SSE,148,3.0,4.0,58,0.00,,,0.00,weatherlink.com 1.10,2013-01-19 03:48:00,
2013-01-18 20:03:00,41.2,26.0,30.24,SSE,156,2.0,4.0,56,0.00,,,0.00,weatherlink.com 1.10,2013-01-19 04:03:00,
2013-01-18 20:18:00,41.3,26.0,30.24,SSE,152,2.0,4.0,55,0.00,,,0.00,weatherlink.com 1.10,2013-01-19 04:18:00,
2013-01-18 20:34:00,41.4,26.0,30.24,SSE,162,2.0,3.0,54,0.00,,,0.00,weatherlink.com 1.10,2013-01-19 04:34:00,
2013-01-18 20:49:00,41.6,25.0,30.24,SSE,154,3.0,3.0,53,0.00,,,0.00,weatherlink.com 1.10,2013-01-19 04:49:00,
2013-01-18 21:04:00,41.6,25.0,30.25,SE,137,2.0,3.0,53,0.00,,,0.00,weatherlink.com 1.10,2013-01-19 05:04:00,
2013-01-18 21:19:00,41.2,26.0,30.25,SSE,152,3.0,4.0,54,0.00,,,0.00,weatherlink.com 1.10,2013-01-19 05:19:00,
2013-01-18 21:34:00,41.0,25.0,30.25,SSE,150,2.0,4.0,54,0.00,,,0.00,weatherlink.com 1.10,2013-01-19 05:34:00,
2013-01-18 21:49:00,41.1,24.0,30.24,SE,143,2.0,3.0,51,0.00,,,0.00,weatherlink.com 1.10,2013-01-19 05:49:00,
2013-01-18 22:04:00,41.6,24.0,30.25,SE,134,3.0,4.0,49,0.00,,,0.00,weatherlink.com 1.10,2013-01-19 06:04:00,
2013-01-18 22:19:00,41.5,24.0,30.25,SE,135,2.0,4.0,50,0.00,,,0.00,weatherlink.com 1.10,2013-01-19 06:19:00,
2013-01-18 22:34:00,41.3,23.0,30.25,SSE,148,3.0,4.0,48,0.00,,,0.00,weatherlink.com 1.10,2013-01-19 06:34:00,
2013-01-18 22:49:00,40.7,23.0,30.25,SSE,156,2.0,4.0,50,0.00,,,0.00,weatherlink.com 1.10,2013-01-19 06:49:00,
2013-01-18 23:04:00,40.4,23.0,30.25,SSE,148,4.0,4.0,50,0.00,,,0.00,weatherlink.com 1.10,2013-01-19 07:04:00,
2013-01-18 23:19:00,40.3,21.0,30.25,SSE,152,3.0,4.0,47,0.00,,,0.00,weatherlink.com 1.10,2013-01-19 07:19:00,
2013-01-18 23:34:00,40.3,22.0,30.24,SSE,150,2.0,3.0,49,0.00,,,0.00,weatherlink.com 1.10,2013-01-19 07:34:00,
2013-01-18 23:49:00,39.9,22.0,30.24,SSE,148,3.0,3.0,49,0.00,,,0.00,weatherlink.com 1.10,2013-01-19 07:49:00,